Terminal Aerodrome Forecast
Issued by NWS Blacksburg, VA

Home | Current Version | Previous Version | Text Only | Print | Product List | Glossary On
Versions: 1 2 3 4 5 6 7 8 9 10 11 12 13 14 15 16 17 18 19 20 21 22 23 24 25 26 27
000
FTUS41 KRNK 230934 AAA
TAFROA
TAF AMD
KROA 230934Z 2310/2406 VRB03KT 6SM BR SCT028 BKN050 OVC100
      TEMPO 2310/2313 SCT015 BKN028
     FM231500 08006KT P6SM VCSH SCT030 BKN045 OVC080
     FM240300 08007KT 6SM -RADZ BR OVC025=

USA.gov is the U.S. government's official web portal to all federal, state and local government web resources and services.